Greenspond, Canada
Current Conditions -  °F | °C
As of 3:27 AM on Saturday 29 Nov 2014 (Local Time) from CYQX Reporting Station
Light Snow Light Snow  
Wind Chill: 16°   Ceiling: 2500
Heat Index: 25°   Visibility: 2.5mi
Dew Point: 23°   Wind: 8mph
Humidity: 93%   Direction: 10°N
Pressure: 29.79"   Gusts: NA
Location:  49.05°N, 53.58°W
Report Text: CYQX 290627Z 01007KT 2 1/2SM -SN SCT005 BKN025 OVC075 M04/M05 A2979 RMK SN2SF2SC3AC1 SLP097
Loading
Personal Weather Stations






























Interactive Weather Map New forecast layout! Learn more

10-Day Weather Forecast

Advertisements
Track Severe Weather on mobile